sensor_id;sensor_type;location;lat;lon;timestamp;P1;durP1;ratioP1;P2;durP2;ratioP2
29466;SDS011;60968;37.490;-122.288;2023-02-13T00:00:35;4.93;;;1.10;;
29466;SDS011;60968;37.490;-122.288;2023-02-13T00:03:37;3.30;;;0.90;;
29466;SDS011;60968;37.490;-122.288;2023-02-13T00:06:39;2.70;;;0.83;;
29466;SDS011;60968;37.490;-122.288;2023-02-13T00:09:41;3.17;;;0.97;;
29466;SDS011;60968;37.490;-122.288;2023-02-13T00:12:42;2.53;;;0.70;;
29466;SDS011;60968;37.490;-122.288;2023-02-13T00:15:43;2.17;;;1.03;;
29466;SDS011;60968;37.490;-122.288;2023-02-13T00:18:44;4.90;;;0.80;;
29466;SDS011;60968;37.490;-122.288;2023-02-13T00:21:45;3.10;;;0.90;;
29466;SDS011;60968;37.490;-122.288;2023-02-13T00:24:45;4.37;;;1.33;;
29466;SDS011;60968;37.490;-122.288;2023-02-13T00:27:46;3.57;;;0.90;;
29466;SDS011;60968;37.490;-122.288;2023-02-13T00:30:47;7.23;;;1.47;;
29466;SDS011;60968;37.490;-122.288;2023-02-13T00:33:50;5.33;;;1.10;;
29466;SDS011;60968;37.490;-122.288;2023-02-13T00:36:50;7.67;;;1.60;;
29466;SDS011;60968;37.490;-122.288;2023-02-13T00:39:51;5.13;;;1.40;;
29466;SDS011;60968;37.490;-122.288;2023-02-13T00:42:52;7.43;;;1.37;;
29466;SDS011;60968;37.490;-122.288;2023-02-13T00:45:54;6.80;;;1.20;;
29466;SDS011;60968;37.490;-122.288;2023-02-13T00:48:55;4.07;;;1.27;;
29466;SDS011;60968;37.490;-122.288;2023-02-13T00:51:56;8.90;;;1.27;;
29466;SDS011;60968;37.490;-122.288;2023-02-13T00:54:57;5.97;;;1.70;;
29466;SDS011;60968;37.490;-122.288;2023-02-13T00:57:58;4.47;;;1.30;;
29466;SDS011;60968;37.490;-122.288;2023-02-13T01:00:59;5.33;;;1.50;;
29466;SDS011;60968;37.490;-122.288;2023-02-13T01:04:00;10.23;;;1.83;;
29466;SDS011;60968;37.490;-122.288;2023-02-13T01:07:01;6.90;;;2.00;;
29466;SDS011;60968;37.490;-122.288;2023-02-13T01:10:02;7.03;;;1.67;;
29466;SDS011;60968;37.490;-122.288;2023-02-13T01:13:04;12.03;;;1.93;;
29466;SDS011;60968;37.490;-122.288;2023-02-13T01:16:07;6.53;;;1.67;;
29466;SDS011;60968;37.490;-122.288;2023-02-13T01:19:07;8.70;;;1.90;;
29466;SDS011;60968;37.490;-122.288;2023-02-13T01:22:09;5.77;;;1.80;;
29466;SDS011;60968;37.490;-122.288;2023-02-13T01:25:10;4.97;;;1.50;;
29466;SDS011;60968;37.490;-122.288;2023-02-13T01:28:11;11.23;;;2.53;;
29466;SDS011;60968;37.490;-122.288;2023-02-13T01:31:13;8.97;;;2.27;;
29466;SDS011;60968;37.490;-122.288;2023-02-13T01:34:14;8.50;;;1.93;;
29466;SDS011;60968;37.490;-122.288;2023-02-13T01:37:15;10.27;;;1.97;;
29466;SDS011;60968;37.490;-122.288;2023-02-13T01:40:16;9.57;;;2.80;;
29466;SDS011;60968;37.490;-122.288;2023-02-13T01:43:18;11.10;;;2.13;;
29466;SDS011;60968;37.490;-122.288;2023-02-13T01:46:25;7.80;;;2.20;;
29466;SDS011;60968;37.490;-122.288;2023-02-13T01:49:29;9.70;;;2.40;;
29466;SDS011;60968;37.490;-122.288;2023-02-13T01:52:31;10.43;;;2.43;;
29466;SDS011;60968;37.490;-122.288;2023-02-13T01:55:34;7.37;;;2.53;;
29466;SDS011;60968;37.490;-122.288;2023-02-13T01:58:45;8.30;;;1.87;;
29466;SDS011;60968;37.490;-122.288;2023-02-13T02:01:48;10.83;;;2.27;;
29466;SDS011;60968;37.490;-122.288;2023-02-13T02:04:51;12.20;;;2.63;;
29466;SDS011;60968;37.490;-122.288;2023-02-13T02:07:52;9.23;;;2.40;;
29466;SDS011;60968;37.490;-122.288;2023-02-13T02:10:55;5.93;;;1.87;;
29466;SDS011;60968;37.490;-122.288;2023-02-13T02:14:02;7.87;;;1.87;;
29466;SDS011;60968;37.490;-122.288;2023-02-13T02:17:03;4.60;;;1.10;;
29466;SDS011;60968;37.490;-122.288;2023-02-13T02:37:58;5.80;;;0.93;;
29466;SDS011;60968;37.490;-122.288;2023-02-13T02:44:17;2.87;;;1.10;;
29466;SDS011;60968;37.490;-122.288;2023-02-13T02:47:44;4.33;;;1.00;;
29466;SDS011;60968;37.490;-122.288;2023-02-13T02:51:53;4.57;;;0.93;;
29466;SDS011;60968;37.490;-122.288;2023-02-13T02:57:32;2.20;;;0.67;;
29466;SDS011;60968;37.490;-122.288;2023-02-13T03:00:42;3.83;;;0.70;;
29466;SDS011;60968;37.490;-122.288;2023-02-13T03:03:46;2.33;;;0.70;;
29466;SDS011;60968;37.490;-122.288;2023-02-13T03:06:58;4.33;;;0.80;;
29466;SDS011;60968;37.490;-122.288;2023-02-13T03:10:05;2.93;;;1.00;;
29466;SDS011;60968;37.490;-122.288;2023-02-13T03:13:17;3.63;;;0.60;;
29466;SDS011;60968;37.490;-122.288;2023-02-13T03:16:33;3.93;;;1.00;;
29466;SDS011;60968;37.490;-122.288;2023-02-13T03:23:06;1.67;;;0.60;;
29466;SDS011;60968;37.490;-122.288;2023-02-13T03:26:37;1.90;;;0.50;;
29466;SDS011;60968;37.490;-122.288;2023-02-13T03:29:57;4.73;;;0.47;;
29466;SDS011;60968;37.490;-122.288;2023-02-13T03:36:32;2.67;;;0.53;;
29466;SDS011;60968;37.490;-122.288;2023-02-13T03:39:42;2.07;;;0.63;;
29466;SDS011;60968;37.490;-122.288;2023-02-13T03:42:54;4.50;;;0.77;;
29466;SDS011;60968;37.490;-122.288;2023-02-13T03:45:58;4.73;;;0.67;;
29466;SDS011;60968;37.490;-122.288;2023-02-13T03:49:05;6.97;;;0.70;;
29466;SDS011;60968;37.490;-122.288;2023-02-13T03:55:28;5.53;;;0.60;;
29466;SDS011;60968;37.490;-122.288;2023-02-13T03:58:36;3.03;;;0.63;;
29466;SDS011;60968;37.490;-122.288;2023-02-13T04:01:43;1.23;;;0.57;;
29466;SDS011;60968;37.490;-122.288;2023-02-13T04:05:08;1.57;;;0.70;;
29466;SDS011;60968;37.490;-122.288;2023-02-13T04:08:15;3.17;;;0.50;;
29466;SDS011;60968;37.490;-122.288;2023-02-13T04:11:38;2.50;;;0.63;;
29466;SDS011;60968;37.490;-122.288;2023-02-13T04:17:54;12.10;;;2.90;;
29466;SDS011;60968;37.490;-122.288;2023-02-13T04:21:03;9.00;;;3.47;;
29466;SDS011;60968;37.490;-122.288;2023-02-13T04:24:05;5.67;;;2.10;;
29466;SDS011;60968;37.490;-122.288;2023-02-13T04:27:08;11.33;;;2.27;;
29466;SDS011;60968;37.490;-122.288;2023-02-13T04:30:14;3.77;;;1.57;;
29466;SDS011;60968;37.490;-122.288;2023-02-13T04:33:15;4.80;;;1.13;;
29466;SDS011;60968;37.490;-122.288;2023-02-13T04:36:17;6.07;;;1.90;;
29466;SDS011;60968;37.490;-122.288;2023-02-13T04:39:18;4.80;;;1.07;;
29466;SDS011;60968;37.490;-122.288;2023-02-13T04:42:19;7.10;;;1.60;;
29466;SDS011;60968;37.490;-122.288;2023-02-13T04:45:20;6.13;;;1.60;;
29466;SDS011;60968;37.490;-122.288;2023-02-13T04:48:22;6.17;;;1.70;;
29466;SDS011;60968;37.490;-122.288;2023-02-13T04:51:23;4.03;;;1.63;;
29466;SDS011;60968;37.490;-122.288;2023-02-13T04:54:24;4.23;;;1.63;;
29466;SDS011;60968;37.490;-122.288;2023-02-13T04:57:25;6.23;;;1.67;;
29466;SDS011;60968;37.490;-122.288;2023-02-13T05:00:26;4.30;;;1.30;;
29466;SDS011;60968;37.490;-122.288;2023-02-13T05:03:28;9.17;;;1.70;;
29466;SDS011;60968;37.490;-122.288;2023-02-13T05:06:30;7.43;;;2.50;;
29466;SDS011;60968;37.490;-122.288;2023-02-13T05:09:32;5.90;;;1.80;;
29466;SDS011;60968;37.490;-122.288;2023-02-13T05:12:32;7.43;;;2.17;;
29466;SDS011;60968;37.490;-122.288;2023-02-13T05:15:33;7.67;;;2.53;;
29466;SDS011;60968;37.490;-122.288;2023-02-13T05:18:34;8.47;;;2.80;;
29466;SDS011;60968;37.490;-122.288;2023-02-13T05:21:35;11.33;;;2.47;;
29466;SDS011;60968;37.490;-122.288;2023-02-13T05:24:36;12.40;;;3.03;;
29466;SDS011;60968;37.490;-122.288;2023-02-13T05:27:37;6.43;;;2.03;;
29466;SDS011;60968;37.490;-122.288;2023-02-13T05:30:38;5.57;;;2.03;;
29466;SDS011;60968;37.490;-122.288;2023-02-13T05:33:39;5.20;;;1.87;;
29466;SDS011;60968;37.490;-122.288;2023-02-13T05:36:40;6.87;;;2.50;;
29466;SDS011;60968;37.490;-122.288;2023-02-13T05:39:40;8.53;;;2.00;;
29466;SDS011;60968;37.490;-122.288;2023-02-13T05:42:41;6.13;;;2.03;;
29466;SDS011;60968;37.490;-122.288;2023-02-13T05:45:42;5.67;;;1.67;;
29466;SDS011;60968;37.490;-122.288;2023-02-13T05:48:43;7.50;;;1.60;;
29466;SDS011;60968;37.490;-122.288;2023-02-13T05:51:44;5.27;;;1.80;;
29466;SDS011;60968;37.490;-122.288;2023-02-13T05:54:46;8.10;;;2.13;;
29466;SDS011;60968;37.490;-122.288;2023-02-13T05:57:47;6.33;;;1.90;;
29466;SDS011;60968;37.490;-122.288;2023-02-13T06:00:53;5.33;;;1.57;;
29466;SDS011;60968;37.490;-122.288;2023-02-13T06:03:56;7.77;;;1.90;;
29466;SDS011;60968;37.490;-122.288;2023-02-13T06:06:56;6.10;;;1.20;;
29466;SDS011;60968;37.490;-122.288;2023-02-13T06:09:57;6.80;;;1.67;;
29466;SDS011;60968;37.490;-122.288;2023-02-13T06:12:58;8.17;;;1.50;;
29466;SDS011;60968;37.490;-122.288;2023-02-13T06:15:59;6.80;;;2.07;;
29466;SDS011;60968;37.490;-122.288;2023-02-13T06:19:00;5.20;;;1.53;;
29466;SDS011;60968;37.490;-122.288;2023-02-13T06:22:02;4.63;;;1.40;;
29466;SDS011;60968;37.490;-122.288;2023-02-13T06:25:04;5.53;;;1.40;;
29466;SDS011;60968;37.490;-122.288;2023-02-13T06:28:05;7.83;;;2.17;;
29466;SDS011;60968;37.490;-122.288;2023-02-13T06:31:06;9.83;;;2.43;;
29466;SDS011;60968;37.490;-122.288;2023-02-13T06:34:07;7.27;;;2.10;;
29466;SDS011;60968;37.490;-122.288;2023-02-13T06:37:08;10.90;;;1.87;;
29466;SDS011;60968;37.490;-122.288;2023-02-13T06:40:11;9.27;;;2.13;;
29466;SDS011;60968;37.490;-122.288;2023-02-13T06:43:13;8.80;;;2.43;;
29466;SDS011;60968;37.490;-122.288;2023-02-13T06:46:18;10.40;;;2.30;;
29466;SDS011;60968;37.490;-122.288;2023-02-13T06:49:19;11.80;;;2.07;;
29466;SDS011;60968;37.490;-122.288;2023-02-13T06:52:20;9.70;;;2.03;;
29466;SDS011;60968;37.490;-122.288;2023-02-13T06:55:21;11.03;;;1.90;;
29466;SDS011;60968;37.490;-122.288;2023-02-13T06:58:24;9.10;;;2.30;;
29466;SDS011;60968;37.490;-122.288;2023-02-13T07:01:25;14.27;;;2.87;;
29466;SDS011;60968;37.490;-122.288;2023-02-13T07:04:26;9.07;;;2.40;;
29466;SDS011;60968;37.490;-122.288;2023-02-13T07:07:31;9.57;;;2.20;;
29466;SDS011;60968;37.490;-122.288;2023-02-13T07:10:38;9.47;;;2.10;;
29466;SDS011;60968;37.490;-122.288;2023-02-13T07:13:41;11.13;;;2.40;;
29466;SDS011;60968;37.490;-122.288;2023-02-13T07:16:42;8.93;;;2.10;;
29466;SDS011;60968;37.490;-122.288;2023-02-13T07:19:42;9.07;;;2.67;;
29466;SDS011;60968;37.490;-122.288;2023-02-13T07:22:43;8.93;;;2.27;;
29466;SDS011;60968;37.490;-122.288;2023-02-13T07:25:45;7.80;;;1.97;;
29466;SDS011;60968;37.490;-122.288;2023-02-13T07:28:47;7.07;;;1.90;;
29466;SDS011;60968;37.490;-122.288;2023-02-13T07:31:49;8.63;;;1.60;;
29466;SDS011;60968;37.490;-122.288;2023-02-13T07:34:51;8.23;;;2.17;;
29466;SDS011;60968;37.490;-122.288;2023-02-13T07:37:52;7.07;;;1.90;;
29466;SDS011;60968;37.490;-122.288;2023-02-13T07:40:53;12.13;;;2.13;;
29466;SDS011;60968;37.490;-122.288;2023-02-13T07:43:56;5.00;;;1.47;;
29466;SDS011;60968;37.490;-122.288;2023-02-13T07:46:57;6.37;;;1.70;;
29466;SDS011;60968;37.490;-122.288;2023-02-13T07:49:58;9.27;;;1.87;;
29466;SDS011;60968;37.490;-122.288;2023-02-13T07:53:00;4.83;;;1.50;;
29466;SDS011;60968;37.490;-122.288;2023-02-13T07:56:05;5.73;;;1.40;;
29466;SDS011;60968;37.490;-122.288;2023-02-13T07:59:06;7.17;;;1.60;;
29466;SDS011;60968;37.490;-122.288;2023-02-13T08:02:11;4.63;;;1.53;;
29466;SDS011;60968;37.490;-122.288;2023-02-13T08:05:12;4.17;;;1.43;;
29466;SDS011;60968;37.490;-122.288;2023-02-13T08:08:14;4.27;;;1.30;;
29466;SDS011;60968;37.490;-122.288;2023-02-13T08:11:22;6.57;;;1.43;;
29466;SDS011;60968;37.490;-122.288;2023-02-13T08:14:25;6.47;;;1.40;;
29466;SDS011;60968;37.490;-122.288;2023-02-13T08:17:27;3.00;;;1.50;;
29466;SDS011;60968;37.490;-122.288;2023-02-13T08:20:29;5.27;;;1.50;;
29466;SDS011;60968;37.490;-122.288;2023-02-13T08:23:30;5.87;;;1.40;;
29466;SDS011;60968;37.490;-122.288;2023-02-13T08:26:32;2.83;;;1.10;;
29466;SDS011;60968;37.490;-122.288;2023-02-13T08:29:34;6.70;;;1.57;;
29466;SDS011;60968;37.490;-122.288;2023-02-13T08:32:35;6.17;;;1.37;;
29466;SDS011;60968;37.490;-122.288;2023-02-13T08:35:37;4.17;;;1.07;;
29466;SDS011;60968;37.490;-122.288;2023-02-13T08:38:38;4.87;;;1.40;;
29466;SDS011;60968;37.490;-122.288;2023-02-13T08:41:39;9.30;;;1.67;;
29466;SDS011;60968;37.490;-122.288;2023-02-13T08:44:40;4.40;;;1.17;;
29466;SDS011;60968;37.490;-122.288;2023-02-13T08:47:41;5.53;;;1.60;;
29466;SDS011;60968;37.490;-122.288;2023-02-13T08:50:44;6.30;;;1.57;;
29466;SDS011;60968;37.490;-122.288;2023-02-13T08:53:46;7.93;;;1.63;;
29466;SDS011;60968;37.490;-122.288;2023-02-13T08:56:47;6.07;;;1.70;;
29466;SDS011;60968;37.490;-122.288;2023-02-13T08:59:48;7.10;;;1.23;;
29466;SDS011;60968;37.490;-122.288;2023-02-13T09:02:52;4.00;;;0.93;;
29466;SDS011;60968;37.490;-122.288;2023-02-13T09:05:59;6.50;;;1.50;;
29466;SDS011;60968;37.490;-122.288;2023-02-13T09:09:05;6.90;;;1.50;;
29466;SDS011;60968;37.490;-122.288;2023-02-13T09:12:06;10.03;;;1.53;;
29466;SDS011;60968;37.490;-122.288;2023-02-13T09:15:07;9.93;;;1.90;;
29466;SDS011;60968;37.490;-122.288;2023-02-13T09:18:10;6.70;;;1.87;;
29466;SDS011;60968;37.490;-122.288;2023-02-13T09:21:11;5.33;;;1.73;;
29466;SDS011;60968;37.490;-122.288;2023-02-13T09:24:12;4.97;;;1.33;;
29466;SDS011;60968;37.490;-122.288;2023-02-13T09:27:12;4.40;;;1.27;;
29466;SDS011;60968;37.490;-122.288;2023-02-13T09:30:13;6.07;;;1.60;;
29466;SDS011;60968;37.490;-122.288;2023-02-13T09:33:16;7.03;;;1.40;;
29466;SDS011;60968;37.490;-122.288;2023-02-13T09:36:18;8.93;;;1.93;;
29466;SDS011;60968;37.490;-122.288;2023-02-13T09:39:22;7.80;;;1.50;;
29466;SDS011;60968;37.490;-122.288;2023-02-13T09:42:24;10.23;;;2.00;;
29466;SDS011;60968;37.490;-122.288;2023-02-13T09:45:30;7.07;;;1.57;;
29466;SDS011;60968;37.490;-122.288;2023-02-13T09:48:33;9.23;;;2.23;;
29466;SDS011;60968;37.490;-122.288;2023-02-13T09:51:37;8.33;;;2.53;;
29466;SDS011;60968;37.490;-122.288;2023-02-13T09:54:39;11.40;;;2.00;;
29466;SDS011;60968;37.490;-122.288;2023-02-13T09:57:46;12.37;;;2.20;;
29466;SDS011;60968;37.490;-122.288;2023-02-13T10:01:13;8.27;;;2.03;;
29466;SDS011;60968;37.490;-122.288;2023-02-13T10:17:55;5.23;;;1.60;;
29466;SDS011;60968;37.490;-122.288;2023-02-13T10:20:54;11.77;;;2.07;;
29466;SDS011;60968;37.490;-122.288;2023-02-13T10:24:04;10.43;;;2.03;;
29466;SDS011;60968;37.490;-122.288;2023-02-13T10:30:27;11.13;;;1.90;;
29466;SDS011;60968;37.490;-122.288;2023-02-13T10:36:44;13.20;;;1.97;;
29466;SDS011;60968;37.490;-122.288;2023-02-13T10:39:50;13.23;;;3.10;;
29466;SDS011;60968;37.490;-122.288;2023-02-13T10:46:21;9.97;;;2.00;;
29466;SDS011;60968;37.490;-122.288;2023-02-13T10:49:42;13.13;;;2.83;;
29466;SDS011;60968;37.490;-122.288;2023-02-13T10:59:36;11.70;;;2.60;;
29466;SDS011;60968;37.490;-122.288;2023-02-13T11:03:12;11.20;;;2.10;;
29466;SDS011;60968;37.490;-122.288;2023-02-13T11:06:20;8.77;;;2.20;;
29466;SDS011;60968;37.490;-122.288;2023-02-13T11:09:22;5.50;;;1.70;;
29466;SDS011;60968;37.490;-122.288;2023-02-13T11:15:29;8.03;;;1.87;;
29466;SDS011;60968;37.490;-122.288;2023-02-13T11:18:37;7.60;;;1.87;;
29466;SDS011;60968;37.490;-122.288;2023-02-13T11:21:40;5.43;;;1.63;;
29466;SDS011;60968;37.490;-122.288;2023-02-13T11:24:42;7.87;;;2.23;;
29466;SDS011;60968;37.490;-122.288;2023-02-13T11:27:54;5.57;;;1.70;;
29466;SDS011;60968;37.490;-122.288;2023-02-13T11:31:10;9.03;;;1.60;;
29466;SDS011;60968;37.490;-122.288;2023-02-13T11:34:22;4.47;;;1.43;;
29466;SDS011;60968;37.490;-122.288;2023-02-13T11:37:26;5.33;;;1.20;;
29466;SDS011;60968;37.490;-122.288;2023-02-13T11:40:30;6.27;;;2.13;;
29466;SDS011;60968;37.490;-122.288;2023-02-13T11:43:35;7.63;;;1.97;;
29466;SDS011;60968;37.490;-122.288;2023-02-13T11:46:46;8.43;;;1.90;;
29466;SDS011;60968;37.490;-122.288;2023-02-13T11:49:50;12.03;;;2.30;;
29466;SDS011;60968;37.490;-122.288;2023-02-13T11:52:56;8.07;;;1.80;;
29466;SDS011;60968;37.490;-122.288;2023-02-13T11:56:05;7.70;;;1.60;;
29466;SDS011;60968;37.490;-122.288;2023-02-13T11:59:10;6.50;;;1.83;;
29466;SDS011;60968;37.490;-122.288;2023-02-13T12:02:20;9.27;;;2.17;;
29466;SDS011;60968;37.490;-122.288;2023-02-13T12:05:24;10.83;;;1.87;;
29466;SDS011;60968;37.490;-122.288;2023-02-13T12:08:27;15.73;;;2.60;;
29466;SDS011;60968;37.490;-122.288;2023-02-13T12:11:37;12.23;;;2.63;;
29466;SDS011;60968;37.490;-122.288;2023-02-13T12:14:43;13.53;;;2.13;;
29466;SDS011;60968;37.490;-122.288;2023-02-13T12:17:46;7.67;;;1.63;;
29466;SDS011;60968;37.490;-122.288;2023-02-13T12:28:10;10.43;;;1.90;;
29466;SDS011;60968;37.490;-122.288;2023-02-13T12:34:45;10.70;;;2.60;;
29466;SDS011;60968;37.490;-122.288;2023-02-13T12:41:18;9.70;;;2.60;;
29466;SDS011;60968;37.490;-122.288;2023-02-13T12:51:30;29.30;;;4.90;;
29466;SDS011;60968;37.490;-122.288;2023-02-13T13:11:51;22.20;;;3.97;;
29466;SDS011;60968;37.490;-122.288;2023-02-13T13:15:20;13.97;;;3.23;;
29466;SDS011;60968;37.490;-122.288;2023-02-13T13:18:31;14.63;;;2.80;;
29466;SDS011;60968;37.490;-122.288;2023-02-13T13:25:14;16.33;;;2.80;;
29466;SDS011;60968;37.490;-122.288;2023-02-13T13:28:37;14.80;;;3.03;;
29466;SDS011;60968;37.490;-122.288;2023-02-13T13:31:50;9.97;;;3.00;;
29466;SDS011;60968;37.490;-122.288;2023-02-13T13:35:03;17.67;;;3.60;;
29466;SDS011;60968;37.490;-122.288;2023-02-13T13:38:14;10.20;;;2.70;;
29466;SDS011;60968;37.490;-122.288;2023-02-13T13:50:47;16.30;;;4.03;;
29466;SDS011;60968;37.490;-122.288;2023-02-13T13:57:07;23.40;;;3.57;;
29466;SDS011;60968;37.490;-122.288;2023-02-13T14:03:23;18.07;;;3.17;;
29466;SDS011;60968;37.490;-122.288;2023-02-13T14:09:42;14.47;;;2.90;;
29466;SDS011;60968;37.490;-122.288;2023-02-13T14:12:45;22.83;;;3.43;;
29466;SDS011;60968;37.490;-122.288;2023-02-13T14:15:51;14.83;;;3.40;;
29466;SDS011;60968;37.490;-122.288;2023-02-13T14:18:52;15.07;;;2.87;;
29466;SDS011;60968;37.490;-122.288;2023-02-13T14:21:53;13.70;;;4.10;;
29466;SDS011;60968;37.490;-122.288;2023-02-13T14:25:20;13.33;;;2.97;;
29466;SDS011;60968;37.490;-122.288;2023-02-13T14:28:26;14.03;;;3.37;;
29466;SDS011;60968;37.490;-122.288;2023-02-13T14:31:35;14.03;;;2.20;;
29466;SDS011;60968;37.490;-122.288;2023-02-13T14:34:39;9.77;;;1.70;;
29466;SDS011;60968;37.490;-122.288;2023-02-13T14:37:47;8.93;;;2.13;;
29466;SDS011;60968;37.490;-122.288;2023-02-13T14:40:54;20.87;;;3.93;;
29466;SDS011;60968;37.490;-122.288;2023-02-13T14:43:55;12.93;;;2.63;;
29466;SDS011;60968;37.490;-122.288;2023-02-13T14:46:57;9.17;;;2.70;;
29466;SDS011;60968;37.490;-122.288;2023-02-13T14:50:05;13.43;;;2.60;;
29466;SDS011;60968;37.490;-122.288;2023-02-13T14:53:09;11.73;;;3.00;;
29466;SDS011;60968;37.490;-122.288;2023-02-13T14:56:20;15.80;;;2.93;;
29466;SDS011;60968;37.490;-122.288;2023-02-13T14:59:27;16.80;;;3.33;;
29466;SDS011;60968;37.490;-122.288;2023-02-13T15:02:32;13.40;;;3.33;;
29466;SDS011;60968;37.490;-122.288;2023-02-13T15:05:41;19.83;;;3.23;;
29466;SDS011;60968;37.490;-122.288;2023-02-13T15:08:51;14.43;;;3.53;;
29466;SDS011;60968;37.490;-122.288;2023-02-13T15:11:53;14.93;;;3.40;;
29466;SDS011;60968;37.490;-122.288;2023-02-13T15:14:54;10.97;;;3.13;;
29466;SDS011;60968;37.490;-122.288;2023-02-13T15:17:58;17.33;;;3.00;;
29466;SDS011;60968;37.490;-122.288;2023-02-13T15:21:02;15.00;;;3.20;;
29466;SDS011;60968;37.490;-122.288;2023-02-13T15:24:03;15.00;;;2.93;;
29466;SDS011;60968;37.490;-122.288;2023-02-13T15:27:05;21.33;;;3.73;;
29466;SDS011;60968;37.490;-122.288;2023-02-13T15:30:20;16.70;;;3.70;;
29466;SDS011;60968;37.490;-122.288;2023-02-13T15:33:23;16.27;;;3.60;;
29466;SDS011;60968;37.490;-122.288;2023-02-13T15:36:33;16.27;;;3.53;;
29466;SDS011;60968;37.490;-122.288;2023-02-13T15:39:38;16.20;;;3.60;;
29466;SDS011;60968;37.490;-122.288;2023-02-13T15:42:39;16.57;;;3.70;;
29466;SDS011;60968;37.490;-122.288;2023-02-13T15:45:40;15.40;;;3.57;;
29466;SDS011;60968;37.490;-122.288;2023-02-13T15:48:43;12.47;;;3.00;;
29466;SDS011;60968;37.490;-122.288;2023-02-13T15:51:46;15.87;;;3.43;;
29466;SDS011;60968;37.490;-122.288;2023-02-13T15:54:48;10.50;;;3.00;;
29466;SDS011;60968;37.490;-122.288;2023-02-13T15:57:52;12.97;;;2.73;;
29466;SDS011;60968;37.490;-122.288;2023-02-13T16:00:58;25.83;;;3.63;;
29466;SDS011;60968;37.490;-122.288;2023-02-13T16:04:05;13.90;;;3.13;;
29466;SDS011;60968;37.490;-122.288;2023-02-13T16:07:09;23.50;;;5.43;;
29466;SDS011;60968;37.490;-122.288;2023-02-13T16:10:16;30.57;;;4.83;;
29466;SDS011;60968;37.490;-122.288;2023-02-13T16:13:25;23.63;;;5.33;;
29466;SDS011;60968;37.490;-122.288;2023-02-13T16:16:26;34.30;;;5.93;;
29466;SDS011;60968;37.490;-122.288;2023-02-13T16:23:05;23.27;;;4.73;;
29466;SDS011;60968;37.490;-122.288;2023-02-13T16:26:14;20.10;;;4.60;;
29466;SDS011;60968;37.490;-122.288;2023-02-13T16:29:19;21.63;;;4.93;;
29466;SDS011;60968;37.490;-122.288;2023-02-13T16:32:25;22.50;;;4.70;;
29466;SDS011;60968;37.490;-122.288;2023-02-13T16:35:31;21.87;;;4.30;;
29466;SDS011;60968;37.490;-122.288;2023-02-13T16:38:43;26.37;;;5.77;;
29466;SDS011;60968;37.490;-122.288;2023-02-13T16:42:03;23.30;;;4.60;;
29466;SDS011;60968;37.490;-122.288;2023-02-13T16:45:24;18.57;;;4.37;;
29466;SDS011;60968;37.490;-122.288;2023-02-13T16:48:25;19.83;;;4.23;;
29466;SDS011;60968;37.490;-122.288;2023-02-13T16:54:50;20.67;;;5.17;;
29466;SDS011;60968;37.490;-122.288;2023-02-13T16:58:03;19.30;;;4.83;;
29466;SDS011;60968;37.490;-122.288;2023-02-13T17:01:04;19.40;;;4.60;;
29466;SDS011;60968;37.490;-122.288;2023-02-13T17:04:23;19.07;;;4.87;;
29466;SDS011;60968;37.490;-122.288;2023-02-13T17:07:27;13.97;;;4.83;;
29466;SDS011;60968;37.490;-122.288;2023-02-13T17:13:35;15.48;;;5.30;;
29466;SDS011;60968;37.490;-122.288;2023-02-13T17:16:36;17.90;;;5.63;;
29466;SDS011;60968;37.490;-122.288;2023-02-13T17:19:38;15.15;;;5.43;;
29466;SDS011;60968;37.490;-122.288;2023-02-13T17:22:40;17.80;;;5.88;;
29466;SDS011;60968;37.490;-122.288;2023-02-13T17:25:43;17.42;;;6.13;;
29466;SDS011;60968;37.490;-122.288;2023-02-13T17:28:44;18.77;;;6.47;;
29466;SDS011;60968;37.490;-122.288;2023-02-13T17:31:47;22.27;;;7.13;;
29466;SDS011;60968;37.490;-122.288;2023-02-13T17:34:53;18.63;;;7.18;;
29466;SDS011;60968;37.490;-122.288;2023-02-13T17:37:54;21.52;;;7.15;;
29466;SDS011;60968;37.490;-122.288;2023-02-13T17:40:55;17.98;;;7.10;;
29466;SDS011;60968;37.490;-122.288;2023-02-13T17:43:55;18.20;;;6.47;;
29466;SDS011;60968;37.490;-122.288;2023-02-13T17:46:56;19.50;;;6.75;;
29466;SDS011;60968;37.490;-122.288;2023-02-13T17:49:57;20.73;;;6.65;;
29466;SDS011;60968;37.490;-122.288;2023-02-13T17:53:02;29.13;;;7.50;;
29466;SDS011;60968;37.490;-122.288;2023-02-13T17:56:05;31.48;;;7.60;;
29466;SDS011;60968;37.490;-122.288;2023-02-13T17:59:05;31.50;;;7.77;;
29466;SDS011;60968;37.490;-122.288;2023-02-13T18:02:11;33.90;;;7.43;;
29466;SDS011;60968;37.490;-122.288;2023-02-13T18:05:17;21.13;;;6.60;;
29466;SDS011;60968;37.490;-122.288;2023-02-13T18:08:19;28.33;;;7.20;;
29466;SDS011;60968;37.490;-122.288;2023-02-13T18:11:20;28.80;;;6.50;;
29466;SDS011;60968;37.490;-122.288;2023-02-13T18:14:21;27.27;;;6.63;;
29466;SDS011;60968;37.490;-122.288;2023-02-13T18:17:23;30.87;;;7.70;;
29466;SDS011;60968;37.490;-122.288;2023-02-13T18:20:24;31.50;;;7.03;;
29466;SDS011;60968;37.490;-122.288;2023-02-13T18:23:24;41.50;;;7.53;;
29466;SDS011;60968;37.490;-122.288;2023-02-13T18:26:25;30.23;;;7.47;;
29466;SDS011;60968;37.490;-122.288;2023-02-13T18:29:28;32.67;;;7.20;;
29466;SDS011;60968;37.490;-122.288;2023-02-13T18:32:29;26.47;;;6.97;;
29466;SDS011;60968;37.490;-122.288;2023-02-13T18:35:32;34.97;;;7.83;;
29466;SDS011;60968;37.490;-122.288;2023-02-13T18:38:33;37.40;;;6.93;;
29466;SDS011;60968;37.490;-122.288;2023-02-13T18:41:33;37.10;;;7.83;;
29466;SDS011;60968;37.490;-122.288;2023-02-13T18:44:34;38.93;;;8.60;;
29466;SDS011;60968;37.490;-122.288;2023-02-13T18:47:35;40.67;;;8.73;;
29466;SDS011;60968;37.490;-122.288;2023-02-13T18:50:40;34.80;;;7.90;;
29466;SDS011;60968;37.490;-122.288;2023-02-13T18:53:41;31.20;;;7.33;;
29466;SDS011;60968;37.490;-122.288;2023-02-13T18:56:44;40.17;;;8.53;;
29466;SDS011;60968;37.490;-122.288;2023-02-13T18:59:45;39.97;;;7.53;;
29466;SDS011;60968;37.490;-122.288;2023-02-13T19:02:46;32.87;;;8.00;;
29466;SDS011;60968;37.490;-122.288;2023-02-13T19:05:46;33.50;;;6.33;;
29466;SDS011;60968;37.490;-122.288;2023-02-13T19:08:47;32.03;;;7.63;;
29466;SDS011;60968;37.490;-122.288;2023-02-13T19:11:49;42.00;;;8.30;;
29466;SDS011;60968;37.490;-122.288;2023-02-13T19:14:49;37.77;;;7.80;;
29466;SDS011;60968;37.490;-122.288;2023-02-13T19:17:53;31.30;;;6.87;;
29466;SDS011;60968;37.490;-122.288;2023-02-13T19:20:58;36.93;;;6.50;;
29466;SDS011;60968;37.490;-122.288;2023-02-13T19:24:00;35.93;;;7.30;;
29466;SDS011;60968;37.490;-122.288;2023-02-13T19:27:03;30.83;;;6.93;;
29466;SDS011;60968;37.490;-122.288;2023-02-13T19:30:05;24.40;;;5.90;;
29466;SDS011;60968;37.490;-122.288;2023-02-13T19:33:07;24.53;;;6.10;;
29466;SDS011;60968;37.490;-122.288;2023-02-13T19:36:09;30.27;;;6.93;;
29466;SDS011;60968;37.490;-122.288;2023-02-13T19:39:12;23.40;;;5.53;;
29466;SDS011;60968;37.490;-122.288;2023-02-13T19:42:12;22.40;;;5.13;;
29466;SDS011;60968;37.490;-122.288;2023-02-13T19:45:13;19.33;;;5.37;;
29466;SDS011;60968;37.490;-122.288;2023-02-13T19:48:15;15.60;;;3.57;;
29466;SDS011;60968;37.490;-122.288;2023-02-13T19:51:18;21.03;;;4.60;;
29466;SDS011;60968;37.490;-122.288;2023-02-13T19:54:20;18.83;;;4.63;;
29466;SDS011;60968;37.490;-122.288;2023-02-13T19:57:21;18.17;;;3.77;;